QFA245 YMAY-YMML
Flight info
| Callsign | QFA245 |
|---|---|
| Flight time | N/A |
| Altitude | 20000 |
| Route | AY V147 TEMIS V169 ML |
| Aircraft | B789/H-SDE1E2E3FGHIJ2J3J4J5M1RWXY/LB1D1 |
Departure
| Time | 2026-05-08 02:40 |
|---|---|
| Airport | Albury Airport (YMAY) |
Arrival
| Time | N/A |
|---|---|
| Airport | Melbourne Airport (YMML) |
| Time | Latitude | Longitude | Altitude | Speed | Heading |
|---|---|---|---|---|---|
| 2026-05-08 02:39 | -36.06549 | 146.96939 | 552 ft | 0 kts | 261° |
| 2026-05-08 02:40 | -36.06578 | 146.96718 | 552 ft | 65 kts | 261° |
| 2026-05-08 02:40 | -36.06683 | 146.95869 | 552 ft | 134 kts | 261° |
| 2026-05-08 02:40 | -36.06865 | 146.94550 | 805 ft | 155 kts | 259° |
| 2026-05-08 02:40 | -36.07091 | 146.93343 | 1788 ft | 139 kts | 252° |
| 2026-05-08 02:41 | -36.07679 | 146.92397 | 2360 ft | 140 kts | 227° |
| 2026-05-08 02:41 | -36.08535 | 146.91786 | 2774 ft | 145 kts | 213° |
| 2026-05-08 02:41 | -36.09446 | 146.91203 | 3376 ft | 150 kts | 210° |
| 2026-05-08 02:41 | -36.10401 | 146.90603 | 3970 ft | 158 kts | 210° |
| 2026-05-08 02:42 | -36.11421 | 146.89964 | 4467 ft | 170 kts | 209° |
| 2026-05-08 02:42 | -36.12521 | 146.89269 | 4897 ft | 186 kts | 209° |
| 2026-05-08 02:42 | -36.13722 | 146.88553 | 5334 ft | 203 kts | 207° |
| 2026-05-08 02:42 | -36.15052 | 146.87747 | 5747 ft | 222 kts | 210° |
| 2026-05-08 02:43 | -36.16428 | 146.86735 | 6304 ft | 238 kts | 213° |
| 2026-05-08 02:43 | -36.17838 | 146.85566 | 7007 ft | 249 kts | 215° |
| 2026-05-08 02:43 | -36.19265 | 146.84299 | 7769 ft | 256 kts | 216° |
| 2026-05-08 02:43 | -36.20712 | 146.82964 | 8577 ft | 261 kts | 216° |
| 2026-05-08 02:44 | -36.24503 | 146.79342 | 10718 ft | 268 kts | 217° |
| 2026-05-08 02:44 | -36.30586 | 146.73406 | 13237 ft | 290 kts | 217° |
| 2026-05-08 02:44 | -36.37117 | 146.66981 | 15262 ft | 317 kts | 217° |
| 2026-05-08 02:44 | -36.44306 | 146.59878 | 17227 ft | 344 kts | 218° |